Time;durP1;ratioP1;P1;durP2;ratioP2;P2;SDS_P1;SDS_P2;PMS_P1;PMS_P2;Temp;Humidity;BMP_temperature;BMP_pressure;BME280_temperature;BME280_humidity;BME280_pressure;Samples;Min_cycle;Max_cycle;Signal;HPM_P1;HPM_P2
2021/08/01 00:00:13;;;;;;;4.78;2.10;;;;;;;15.49;62.72;99966.34;4964160;28;20043;-80
2021/08/01 00:02:40;;;;;;;5.25;1.77;;;;;;;15.55;62.52;99970.59;4966173;28;20097;-80
2021/08/01 00:05:07;;;;;;;4.63;1.85;;;;;;;15.55;61.80;99973.25;4964179;28;20031;-80
2021/08/01 00:07:34;;;;;;;2.70;1.50;;;;;;;15.55;62.25;99976.75;4950482;28;20556;-81
2021/08/01 00:10:00;;;;;;;3.00;1.50;;;;;;;15.48;62.45;99974.38;4964580;28;20039;-80
2021/08/01 00:12:27;;;;;;;3.50;1.80;;;;;;;15.39;62.76;99975.56;4967791;28;20039;-80
2021/08/01 00:14:53;;;;;;;5.55;1.73;;;;;;;15.31;63.32;99973.19;4953192;28;20035;-81
2021/08/01 00:17:18;;;;;;;4.00;1.70;;;;;;;15.30;63.28;99974.09;4949864;28;20039;-81
2021/08/01 00:19:44;;;;;;;3.42;1.92;;;;;;;15.29;63.25;99967.03;4964788;28;20513;-80
2021/08/01 00:22:10;;;;;;;4.30;1.73;;;;;;;15.25;63.41;99962.75;4966833;28;20097;-80
2021/08/01 00:24:35;;;;;;;4.20;2.15;;;;;;;15.28;62.91;99967.97;4964092;28;20122;-81
2021/08/01 00:27:00;;;;;;;5.65;1.95;;;;;;;15.32;63.34;99972.25;4949803;28;20039;-80
2021/08/01 00:29:26;;;;;;;3.05;1.60;;;;;;;15.32;63.54;99969.59;4968094;28;20039;-80
2021/08/01 00:31:51;;;;;;;5.63;2.22;;;;;;;15.33;63.72;99966.03;4949707;28;20042;-80
2021/08/01 00:34:17;;;;;;;4.15;1.77;;;;;;;15.31;63.81;99957.22;4966776;28;20036;-81
2021/08/01 00:36:42;;;;;;;6.57;2.00;;;;;;;15.30;64.18;99950.19;4952803;28;20061;-80
2021/08/01 00:39:09;;;;;;;3.47;1.95;;;;;;;15.20;64.81;99946.09;4967566;28;20035;-80
2021/08/01 00:41:35;;;;;;;4.47;1.90;;;;;;;15.16;64.86;99939.13;4953206;28;20045;-81
2021/08/01 00:44:01;;;;;;;3.33;2.00;;;;;;;15.17;64.99;99938.25;4964093;28;20031;-81
2021/08/01 00:46:27;;;;;;;4.45;2.22;;;;;;;15.09;65.04;99922.56;4937581;28;20031;-80
2021/08/01 00:48:52;;;;;;;4.80;2.38;;;;;;;15.11;65.35;99922.47;4952371;28;20390;-80
2021/08/01 00:51:17;;;;;;;3.47;1.90;;;;;;;15.12;65.19;99922.44;4947904;29;20525;-80
2021/08/01 00:53:43;;;;;;;4.90;1.90;;;;;;;15.13;65.54;99912.66;4950641;28;20035;-80
2021/08/01 00:56:09;;;;;;;4.05;1.80;;;;;;;15.13;65.78;99913.53;4969771;28;20167;-80
2021/08/01 00:58:35;;;;;;;4.40;1.85;;;;;;;15.18;65.40;99910.72;4946977;29;20039;-80
2021/08/01 01:01:13;;;;;;;4.85;1.90;;;;;;;15.22;65.42;99919.44;4950324;28;20035;-80
2021/08/01 01:03:55;;;;;;;3.80;1.92;;;;;;;15.29;65.18;99920.97;4951087;28;20935;-81
2021/08/01 01:06:53;;;;;;;3.65;1.70;;;;;;;15.29;66.02;99919.19;4968073;28;20038;-80
2021/08/01 01:09:32;;;;;;;5.78;1.70;;;;;;;15.30;65.13;99907.66;4967525;28;20051;-81
2021/08/01 01:12:22;;;;;;;4.47;2.50;;;;;;;15.29;65.15;99908.53;4951269;28;20037;-80
2021/08/01 01:14:55;;;;;;;7.13;1.95;;;;;;;15.33;65.74;99907.53;4950075;28;20118;-81
2021/08/01 01:17:24;;;;;;;3.60;1.90;;;;;;;15.31;64.97;99914.69;4965583;28;20038;-80
2021/08/01 01:20:12;;;;;;;4.85;1.90;;;;;;;15.26;65.54;99921.09;4966250;28;20518;-80
2021/08/01 01:22:51;;;;;;;3.42;1.80;;;;;;;15.27;65.25;99928.13;4952599;28;20489;-80
2021/08/01 01:26:16;;;;;;;6.32;2.38;;;;;;;15.28;65.29;99919.25;4969663;28;20109;-80
2021/08/01 01:29:03;;;;;;;3.40;1.88;;;;;;;15.28;64.79;99917.47;4875789;29;20176;-80
2021/08/01 01:31:48;;;;;;;3.15;2.10;;;;;;;15.24;65.93;99918.47;4948430;28;20039;-80
2021/08/01 01:34:36;;;;;;;2.90;1.70;;;;;;;15.08;67.53;99927.91;4949155;28;20047;-80
2021/08/01 01:37:05;;;;;;;4.55;2.38;;;;;;;15.00;66.78;99929.97;4967972;28;20035;-80
2021/08/01 01:39:35;;;;;;;3.58;2.00;;;;;;;15.05;66.46;99920.03;4966846;28;20035;-80
2021/08/01 01:42:12;;;;;;;5.68;2.15;;;;;;;15.09;66.43;99924.31;4969770;28;20035;-80
2021/08/01 01:44:43;;;;;;;3.15;1.60;;;;;;;15.14;66.11;99938.31;4964580;28;20034;-81
2021/08/01 01:47:09;;;;;;;8.68;2.47;;;;;;;15.18;66.32;99934.66;4967693;28;20134;-80
2021/08/01 01:49:36;;;;;;;4.88;1.90;;;;;;;15.18;66.26;99933.78;4946675;29;20058;-80
2021/08/01 01:52:04;;;;;;;2.75;1.50;;;;;;;15.14;66.21;99930.34;4966157;28;20035;-80
2021/08/01 01:54:31;;;;;;;4.18;2.08;;;;;;;15.14;66.37;99933.00;4950795;28;20086;-81
2021/08/01 01:56:58;;;;;;;4.15;2.50;;;;;;;15.12;66.32;99929.56;4947068;29;20035;-80
2021/08/01 01:59:29;;;;;;;3.38;1.90;;;;;;;15.09;66.75;99930.53;4942329;28;20035;-81
2021/08/01 02:01:55;;;;;;;4.30;2.20;;;;;;;15.09;67.32;99930.53;4949441;28;20085;-80
2021/08/01 02:04:21;;;;;;;5.65;2.15;;;;;;;15.10;66.90;99928.72;4966650;28;20038;-81
2021/08/01 02:07:20;;;;;;;3.70;2.10;;;;;;;15.06;67.01;99927.97;4959904;28;20042;-80
2021/08/01 02:09:57;;;;;;;3.55;1.70;;;;;;;15.12;66.59;99921.59;4948167;28;20490;-80
2021/08/01 02:12:30;;;;;;;4.20;1.98;;;;;;;15.12;67.07;99927.75;4966195;28;20035;-80
2021/08/01 02:15:15;;;;;;;5.18;2.10;;;;;;;15.12;67.07;99935.72;4949106;28;20061;-80
2021/08/01 02:17:57;;;;;;;4.45;1.90;;;;;;;15.15;67.55;99933.91;4975336;28;20038;-81
2021/08/01 02:20:31;;;;;;;3.80;2.10;;;;;;;15.06;68.92;99935.06;4953386;29;20488;-81
2021/08/01 02:23:23;;;;;;;4.82;2.30;;;;;;;14.99;70.15;99944.19;4969649;28;20134;-81
2021/08/01 02:25:49;;;;;;;;;;;;;;;14.89;70.47;99938.28;4951665;29;20090;-81
2021/08/01 02:28:19;;;;;;;6.60;2.20;;;;;;;14.99;69.35;99949.50;4949043;29;20009;-81
2021/08/01 02:30:46;;;;;;;5.47;1.92;;;;;;;14.96;69.77;99950.47;4949466;28;20035;-80
2021/08/01 02:33:13;;;;;;;4.07;2.40;;;;;;;14.96;69.18;99954.88;4952183;28;20041;-80
2021/08/01 02:35:39;;;;;;;6.85;2.35;;;;;;;14.98;68.60;99951.25;4949455;28;20034;-81
2021/08/01 02:38:06;;;;;;;4.85;1.90;;;;;;;15.05;68.25;99936.84;4951640;28;20109;-80
2021/08/01 02:40:37;;;;;;;4.97;1.90;;;;;;;15.15;67.60;99939.22;4949592;28;20122;-81
2021/08/01 02:43:14;;;;;;;6.32;2.10;;;;;;;15.16;68.07;99939.13;4967924;28;20058;-81
2021/08/01 02:45:42;;;;;;;4.57;2.35;;;;;;;15.16;67.73;99936.47;4948246;29;20114;-81
2021/08/01 02:48:11;;;;;;;4.78;2.50;;;;;;;15.07;68.38;99932.38;4969381;28;20110;-81
2021/08/01 02:50:39;;;;;;;4.43;2.35;;;;;;;14.96;68.67;99929.22;4965600;28;20577;-80
2021/08/01 02:53:09;;;;;;;9.15;2.80;;;;;;;14.86;69.47;99933.09;4969217;28;20078;-81
2021/08/01 02:55:36;;;;;;;4.88;2.30;;;;;;;14.86;68.63;99933.09;4945304;28;20053;-81
2021/08/01 02:58:05;;;;;;;3.90;2.20;;;;;;;14.92;68.65;99929.34;4966192;28;20058;-81
2021/08/01 03:00:35;;;;;;;7.63;2.30;;;;;;;14.93;68.76;99928.41;4950009;28;20528;-81
2021/08/01 03:03:04;;;;;;;5.88;2.42;;;;;;;14.89;69.60;99920.56;4967478;28;20122;-80
2021/08/01 03:05:31;;;;;;;4.53;2.17;;;;;;;14.84;69.22;99919.84;4949451;28;20071;-81
2021/08/01 03:07:57;;;;;;;4.18;2.58;;;;;;;14.92;69.03;99922.25;4968146;28;20386;-80
2021/08/01 03:10:24;;;;;;;5.13;2.10;;;;;;;14.97;68.66;99915.00;4949217;28;20077;-81
2021/08/01 03:12:50;;;;;;;4.03;2.13;;;;;;;14.99;68.65;99906.97;4967328;28;20039;-81
2021/08/01 03:15:19;;;;;;;4.25;2.15;;;;;;;15.03;68.36;99903.28;4948300;28;20055;-80
2021/08/01 03:17:44;;;;;;;4.72;2.35;;;;;;;15.06;68.55;99908.47;4968634;28;20043;-81
2021/08/01 03:20:11;;;;;;;5.20;2.15;;;;;;;15.12;68.32;99909.16;4948984;29;20035;-81
2021/08/01 03:22:57;;;;;;;6.03;2.42;;;;;;;15.16;68.62;99915.22;4972895;28;20039;-81
2021/08/01 03:25:25;;;;;;;6.35;2.28;;;;;;;15.13;69.29;99910.00;4956351;28;20110;-81
2021/08/01 03:27:53;;;;;;;4.45;1.90;;;;;;;15.19;68.52;99904.47;4948992;28;20036;-81
2021/08/01 03:30:18;;;;;;;6.43;2.42;;;;;;;15.20;68.76;99908.03;4968289;28;20027;-81
2021/08/01 03:32:44;;;;;;;5.15;2.30;;;;;;;15.21;68.74;99909.75;4949124;28;20031;-80
2021/08/01 03:35:10;;;;;;;6.03;2.33;;;;;;;15.19;68.89;99923.09;4967707;28;20031;-81
2021/08/01 03:37:54;;;;;;;4.13;2.00;;;;;;;15.26;68.47;99919.28;4950171;28;20042;-81
2021/08/01 03:40:39;;;;;;;5.75;2.17;;;;;;;15.27;69.41;99921.06;4965587;28;20051;-80
2021/08/01 03:43:05;;;;;;;5.65;2.65;;;;;;;15.17;69.37;99927.59;4967488;28;20026;-80
2021/08/01 03:45:31;;;;;;;5.95;2.65;;;;;;;15.12;70.03;99930.41;4963832;28;20094;-80
2021/08/01 03:47:57;;;;;;;9.25;2.35;;;;;;;15.09;70.12;99927.88;4966160;28;20497;-81
2021/08/01 03:50:22;;;;;;;4.90;2.53;;;;;;;15.18;69.06;99924.00;4969185;28;20046;-80
2021/08/01 03:52:47;;;;;;;5.97;2.70;;;;;;;15.16;69.63;99920.53;4965238;28;20054;-81
2021/08/01 03:55:13;;;;;;;4.82;2.45;;;;;;;15.21;69.30;99915.94;4968740;28;20049;-80
2021/08/01 03:57:38;;;;;;;5.45;2.50;;;;;;;15.15;69.71;99916.16;4965405;28;20035;-81
2021/08/01 04:00:06;;;;;;;5.75;2.70;;;;;;;15.17;69.84;99914.31;4950578;28;20038;-80
2021/08/01 04:02:38;;;;;;;7.50;2.55;;;;;;;15.21;69.65;99912.41;4960988;28;20142;-80
2021/08/01 04:05:05;;;;;;;6.65;2.22;;;;;;;15.26;69.74;99903.34;4948783;28;20184;-81
2021/08/01 04:07:30;;;;;;;3.72;2.10;;;;;;;15.32;69.17;99902.25;4950052;28;20042;-80
2021/08/01 04:09:56;;;;;;;5.03;2.30;;;;;;;15.38;69.19;99906.47;4968672;28;20054;-80
2021/08/01 04:12:22;;;;;;;5.03;2.45;;;;;;;15.43;68.78;99907.19;4969801;28;20043;-80
2021/08/01 04:14:47;;;;;;;6.07;2.25;;;;;;;15.40;69.32;99907.31;4948759;28;20745;-80
2021/08/01 04:17:12;;;;;;;6.38;2.10;;;;;;;15.45;69.02;99900.88;4970076;28;20056;-80
2021/08/01 04:19:38;;;;;;;5.78;2.15;;;;;;;15.43;69.21;99907.19;4973049;28;20383;-80
2021/08/01 04:22:04;;;;;;;3.70;2.53;;;;;;;15.46;68.86;99907.09;4971369;28;20397;-80
2021/08/01 04:24:29;;;;;;;5.90;2.58;;;;;;;15.53;68.78;99911.25;4951908;28;20097;-80
2021/08/01 04:26:55;;;;;;;4.90;2.47;;;;;;;15.61;68.41;99910.97;4971073;28;20042;-80
2021/08/01 04:29:20;;;;;;;3.65;2.13;;;;;;;15.72;67.49;99915.03;4968626;28;20467;-81
2021/08/01 04:31:46;;;;;;;4.88;2.72;;;;;;;15.78;67.56;99916.59;4970620;28;20070;-80
2021/08/01 04:34:11;;;;;;;4.80;2.42;;;;;;;15.87;67.37;99918.03;4969256;28;20046;-81
2021/08/01 04:36:37;;;;;;;4.15;2.40;;;;;;;15.96;67.87;99923.00;4970563;28;20039;-80
2021/08/01 04:39:02;;;;;;;4.70;2.63;;;;;;;15.94;67.42;99919.53;4952390;28;20027;-80
2021/08/01 04:41:28;;;;;;;8.68;2.58;;;;;;;15.89;67.99;99925.03;4953486;28;20038;-80
2021/08/01 04:43:53;;;;;;;4.53;2.33;;;;;;;15.88;68.06;99919.78;4969350;28;20034;-80
2021/08/01 04:46:18;;;;;;;5.07;2.50;;;;;;;15.97;67.63;99922.94;4970417;28;20053;-81
2021/08/01 04:48:44;;;;;;;6.93;2.85;;;;;;;16.06;67.54;99919.06;4969174;28;20035;-80
2021/08/01 04:51:09;;;;;;;4.90;2.42;;;;;;;16.08;67.72;99922.50;4971049;28;20113;-80
2021/08/01 04:53:35;;;;;;;6.15;2.60;;;;;;;16.17;67.09;99931.97;4968713;28;20035;-80
2021/08/01 04:56:01;;;;;;;6.38;2.97;;;;;;;16.20;67.35;99927.38;4969966;28;20043;-81
2021/08/01 04:58:26;;;;;;;8.93;3.00;;;;;;;16.27;66.96;99924.47;4972588;28;20034;-80
2021/08/01 05:00:51;;;;;;;4.90;2.45;;;;;;;16.35;66.86;99925.06;4968925;28;20031;-80
2021/08/01 05:03:17;;;;;;;4.82;2.13;;;;;;;16.42;66.61;99926.53;4970586;28;20043;-80
2021/08/01 05:05:42;;;;;;;5.32;2.72;;;;;;;16.48;66.58;99922.75;4968215;28;20027;-80
2021/08/01 05:08:07;;;;;;;4.22;2.40;;;;;;;16.57;66.47;99936.56;4970301;28;20075;-80
2021/08/01 05:10:33;;;;;;;6.05;2.28;;;;;;;16.64;66.42;99919.41;4967344;28;20039;-80
2021/08/01 05:12:58;;;;;;;4.35;2.67;;;;;;;16.73;66.01;99931.47;4952441;28;20038;-80
2021/08/01 05:15:24;;;;;;;4.70;2.33;;;;;;;16.81;65.83;99928.53;4968000;28;20050;-81
2021/08/01 05:17:49;;;;;;;3.80;2.33;;;;;;;16.96;65.75;99927.91;4970461;28;20053;-80
2021/08/01 05:20:15;;;;;;;5.72;2.72;;;;;;;17.05;66.06;99931.97;4967193;28;20144;-80
2021/08/01 05:22:40;;;;;;;6.72;2.65;;;;;;;17.12;65.66;99928.13;4952938;28;20101;-80
2021/08/01 05:25:06;;;;;;;6.13;2.60;;;;;;;17.25;65.53;99923.13;4947292;28;20038;-81
2021/08/01 05:27:31;;;;;;;5.30;2.72;;;;;;;17.27;65.33;99923.94;4967640;28;20434;-80
2021/08/01 05:29:57;;;;;;;4.63;2.35;;;;;;;17.24;66.36;99926.75;4952894;28;20078;-80
2021/08/01 05:32:22;;;;;;;4.68;2.97;;;;;;;17.36;66.59;99920.84;4968006;28;20634;-81
2021/08/01 05:34:48;;;;;;;5.88;2.80;;;;;;;17.43;66.50;99927.66;4970049;28;20081;-81
2021/08/01 05:37:13;;;;;;;4.22;2.60;;;;;;;17.41;66.94;99928.66;4968226;28;20063;-80
2021/08/01 05:39:38;;;;;;;5.82;2.60;;;;;;;17.52;65.67;99927.22;4966091;28;20035;-81
2021/08/01 05:42:04;;;;;;;6.13;2.65;;;;;;;17.59;65.04;99922.50;4953534;28;20039;-81
2021/08/01 05:44:31;;;;;;;4.35;2.30;;;;;;;17.69;64.43;99912.28;4963001;28;20039;-81
2021/08/01 05:46:56;;;;;;;4.82;2.47;;;;;;;17.77;64.63;99914.63;4953745;28;20517;-80
2021/08/01 05:49:21;;;;;;;4.38;2.80;;;;;;;17.77;64.44;99910.13;4970688;28;20042;-80
2021/08/01 05:51:47;;;;;;;3.92;2.63;;;;;;;17.84;64.29;99894.72;4950596;28;20042;-80
2021/08/01 05:54:12;;;;;;;4.22;2.70;;;;;;;17.84;64.34;99902.72;4970025;28;20485;-81
2021/08/01 05:56:37;;;;;;;7.88;3.00;;;;;;;17.81;64.24;99905.53;4967626;28;20082;-81
2021/08/01 05:59:03;;;;;;;7.57;3.00;;;;;;;17.87;63.76;99897.28;4970885;28;20101;-81
2021/08/01 06:01:28;;;;;;;5.00;2.78;;;;;;;17.98;63.94;99902.13;4967308;28;20039;-81
2021/08/01 06:03:53;;;;;;;4.20;3.10;;;;;;;18.03;63.64;99905.44;4969324;28;20052;-81
2021/08/01 06:06:22;;;;;;;6.05;3.00;;;;;;;18.01;63.92;99904.63;4967770;28;20035;-80
2021/08/01 06:08:50;;;;;;;7.53;3.05;;;;;;;18.11;63.02;99895.25;4970608;28;20666;-81
2021/08/01 06:11:16;;;;;;;5.15;2.75;;;;;;;18.29;61.87;99891.72;4948386;29;20038;-81
2021/08/01 06:13:42;;;;;;;4.70;2.85;;;;;;;18.33;62.30;99892.41;4967361;28;20067;-81
2021/08/01 06:16:09;;;;;;;5.25;3.17;;;;;;;18.38;62.17;99891.25;4969863;28;20037;-80
2021/08/01 06:18:36;;;;;;;4.70;2.85;;;;;;;18.47;62.12;99894.41;4969465;28;20379;-81
2021/08/01 06:21:13;;;;;;;5.97;2.78;;;;;;;18.48;62.38;99897.00;4969941;28;20174;-81
2021/08/01 06:23:39;;;;;;;6.55;3.33;;;;;;;18.50;62.48;99899.63;4950714;29;20027;-81
2021/08/01 06:26:04;;;;;;;7.63;3.33;;;;;;;18.52;61.88;99897.72;4971677;28;20382;-80
2021/08/01 06:28:31;;;;;;;6.05;2.72;;;;;;;18.54;61.99;99914.56;4971638;28;20046;-81
2021/08/01 06:31:00;;;;;;;7.35;3.63;;;;;;;18.61;62.22;99913.31;4951254;28;20191;-81
2021/08/01 06:33:25;;;;;;;5.30;2.88;;;;;;;18.58;61.85;99911.66;4966218;28;20130;-81
2021/08/01 06:35:51;;;;;;;5.03;3.38;;;;;;;18.62;61.72;99912.38;4970800;28;20117;-81
2021/08/01 06:38:16;;;;;;;5.85;3.05;;;;;;;18.66;61.15;99919.31;4967037;28;20046;-81
2021/08/01 06:40:41;;;;;;;6.72;3.03;;;;;;;18.75;60.37;99926.03;4970846;28;20051;-80
2021/08/01 06:43:07;;;;;;;7.07;3.20;;;;;;;18.70;60.98;99923.53;4966685;28;20046;-81
2021/08/01 06:45:32;;;;;;;3.63;2.60;;;;;;;18.79;60.66;99917.78;4949836;28;20051;-81
2021/08/01 06:47:57;;;;;;;3.90;2.55;;;;;;;18.92;60.03;99914.50;4970031;28;20242;-81
2021/08/01 06:50:23;;;;;;;4.78;2.75;;;;;;;19.06;59.90;99914.66;4968732;28;20118;-81
2021/08/01 06:52:48;;;;;;;5.53;2.40;;;;;;;19.07;60.13;99911.03;4950186;29;20054;-80
2021/08/01 06:55:13;;;;;;;7.60;2.80;;;;;;;19.14;59.34;99915.13;4970771;28;20081;-81
2021/08/01 06:57:39;;;;;;;7.13;2.67;;;;;;;19.24;59.21;99911.03;4968895;28;20035;-81
2021/08/01 07:00:06;;;;;;;6.47;2.97;;;;;;;19.32;58.92;99904.44;4967222;28;20141;-81
2021/08/01 07:02:32;;;;;;;7.03;3.15;;;;;;;19.41;58.96;99911.97;4971763;28;20038;-81
2021/08/01 07:04:58;;;;;;;6.05;3.30;;;;;;;19.53;58.79;99913.13;4967495;28;20031;-81
2021/08/01 07:07:23;;;;;;;4.43;2.70;;;;;;;19.66;59.07;99909.75;4950290;29;20043;-81
2021/08/01 07:09:49;;;;;;;5.78;2.78;;;;;;;19.81;58.39;99907.22;4970700;28;20030;-81
2021/08/01 07:12:15;;;;;;;4.60;2.70;;;;;;;19.77;57.97;99911.00;4950510;29;20050;-80
2021/08/01 07:14:40;;;;;;;5.15;3.20;;;;;;;19.86;57.55;99910.50;4970394;28;20053;-81
2021/08/01 07:17:05;;;;;;;5.65;3.25;;;;;;;19.96;57.49;99908.16;4951037;29;20035;-81
2021/08/01 07:19:31;;;;;;;5.55;3.10;;;;;;;20.10;57.33;99913.66;4971497;28;20094;-81
2021/08/01 07:21:56;;;;;;;8.27;3.20;;;;;;;20.25;56.63;99912.78;4968073;28;20071;-81
2021/08/01 07:24:21;;;;;;;7.05;2.80;;;;;;;20.32;55.80;99907.94;4970844;28;20042;-81
2021/08/01 07:26:47;;;;;;;5.10;3.13;;;;;;;20.40;56.40;99899.47;4951480;29;20067;-81
2021/08/01 07:29:13;;;;;;;5.85;3.25;;;;;;;20.45;56.06;99903.63;4970556;28;20035;-81
2021/08/01 07:31:38;;;;;;;7.95;2.80;;;;;;;20.34;55.70;99893.50;4968312;28;20122;-81
2021/08/01 07:34:04;;;;;;;4.30;2.60;;;;;;;20.35;55.59;99891.69;4966746;28;20075;-81
2021/08/01 07:36:29;;;;;;;3.95;2.53;;;;;;;20.32;55.39;99898.06;4970576;28;20046;-81
2021/08/01 07:38:54;;;;;;;4.30;2.50;;;;;;;20.29;55.68;99892.91;4969019;28;20134;-81
2021/08/01 07:41:20;;;;;;;4.10;2.30;;;;;;;20.34;55.09;99888.16;4972157;28;20035;-81
2021/08/01 07:43:46;;;;;;;6.03;2.50;;;;;;;20.32;54.87;99886.50;4971654;28;20039;-81
2021/08/01 07:46:11;;;;;;;8.05;2.67;;;;;;;20.36;54.88;99893.44;4954597;28;20042;-81
2021/08/01 07:48:37;;;;;;;6.50;2.95;;;;;;;20.43;54.45;99889.44;4966637;28;20054;-81
2021/08/01 07:51:02;;;;;;;3.88;2.30;;;;;;;20.52;54.29;99894.28;4973992;28;20036;-81
2021/08/01 07:53:27;;;;;;;3.75;2.33;;;;;;;20.52;54.28;99896.97;4958261;28;20485;-81
2021/08/01 07:55:53;;;;;;;5.28;2.72;;;;;;;20.52;54.04;99902.31;4956530;28;20043;-81
2021/08/01 07:58:18;;;;;;;6.90;2.67;;;;;;;20.52;54.09;99907.69;4971781;28;20065;-81
2021/08/01 08:00:43;;;;;;;5.82;2.70;;;;;;;20.55;53.82;99904.00;4976073;28;20047;-81
2021/08/01 08:03:09;;;;;;;3.67;2.13;;;;;;;20.53;53.30;99906.72;4956224;28;20034;-80
2021/08/01 08:05:34;;;;;;;5.82;2.85;;;;;;;20.53;53.72;99908.53;4975474;28;20046;-80
2021/08/01 08:07:59;;;;;;;5.28;2.30;;;;;;;20.58;53.78;99907.34;4972008;28;20043;-81
2021/08/01 08:10:25;;;;;;;5.20;2.58;;;;;;;20.56;54.49;99909.25;4975472;28;20045;-80
2021/08/01 08:12:50;;;;;;;11.32;2.50;;;;;;;20.54;55.54;99908.50;4973334;28;20098;-80
2021/08/01 08:15:16;;;;;;;6.38;2.47;;;;;;;20.53;55.28;99906.72;4974115;28;20062;-80
2021/08/01 08:17:42;;;;;;;3.78;2.30;;;;;;;20.58;54.88;99911.84;4972678;28;20100;-81
2021/08/01 08:20:08;;;;;;;3.38;2.10;;;;;;;20.74;54.66;99904.63;4974836;28;20058;-80
2021/08/01 08:22:34;;;;;;;5.53;2.30;;;;;;;20.81;54.23;99902.47;4978532;28;20062;-80
2021/08/01 08:24:59;;;;;;;5.15;2.58;;;;;;;20.96;54.09;99906.09;4971739;28;20031;-81
2021/08/01 08:27:24;;;;;;;5.22;2.30;;;;;;;21.17;52.95;99906.63;4974469;28;20042;-80
2021/08/01 08:29:50;;;;;;;6.15;2.67;;;;;;;21.13;53.34;99905.06;4977427;28;20094;-81
2021/08/01 08:32:15;;;;;;;5.20;2.03;;;;;;;21.31;52.23;99908.47;4971972;28;20494;-80
2021/08/01 08:34:41;;;;;;;3.58;2.38;;;;;;;21.33;53.27;99910.13;4968926;28;20383;-81
2021/08/01 08:37:06;;;;;;;5.07;2.50;;;;;;;21.48;52.83;99915.53;4972337;28;20498;-81
2021/08/01 08:39:31;;;;;;;4.78;2.22;;;;;;;21.76;52.56;99904.81;4972405;28;20536;-80
2021/08/01 08:41:59;;;;;;;4.38;2.28;;;;;;;21.86;52.00;99910.47;4972528;28;20038;-81
2021/08/01 08:44:25;;;;;;;7.05;2.55;;;;;;;21.83;51.98;99911.53;4954432;28;20023;-81
2021/08/01 08:46:53;;;;;;;5.57;2.28;;;;;;;21.83;52.36;99913.34;4953488;29;20043;-81
2021/08/01 08:49:19;;;;;;;5.90;2.40;;;;;;;21.88;51.96;99913.94;4974773;28;20038;-81
2021/08/01 08:51:45;;;;;;;4.72;2.08;;;;;;;21.82;52.17;99909.81;4954162;29;20062;-81
2021/08/01 08:54:21;;;;;;;4.70;1.77;;;;;;;21.91;51.57;99913.72;4952476;28;20528;-81
2021/08/01 08:56:47;;;;;;;5.00;2.22;;;;;;;21.95;50.40;99904.50;4954965;28;20391;-81
2021/08/01 08:59:18;;;;;;;4.35;2.47;;;;;;;21.91;50.56;99911.03;4973169;28;20090;-81
2021/08/01 09:01:44;;;;;;;4.82;2.08;;;;;;;21.90;50.82;99917.34;4968465;28;20053;-81
2021/08/01 09:04:09;;;;;;;6.20;2.85;;;;;;;21.82;51.17;99915.19;4972245;28;20110;-81
2021/08/01 09:06:35;;;;;;;5.45;2.08;;;;;;;21.68;51.76;99920.53;4973307;28;20480;-81
2021/08/01 09:09:00;;;;;;;5.78;2.42;;;;;;;21.75;51.71;99911.16;4972795;28;20082;-81
2021/08/01 09:11:26;;;;;;;7.03;2.33;;;;;;;21.77;51.71;99911.91;4955974;28;20130;-80
2021/08/01 09:13:53;;;;;;;5.55;2.50;;;;;;;21.71;52.27;99916.78;4971510;28;20039;-81
2021/08/01 09:16:21;;;;;;;5.40;2.60;;;;;;;21.47;52.85;99924.53;4973266;28;20038;-81
2021/08/01 09:18:47;;;;;;;4.53;2.15;;;;;;;21.40;52.39;99926.72;4973834;28;20047;-81
2021/08/01 09:21:30;;;;;;;4.38;2.30;;;;;;;21.43;53.42;99924.75;4972556;28;20046;-81
2021/08/01 09:23:55;;;;;;;3.97;2.13;;;;;;;21.53;52.37;99927.69;4971492;28;20797;-81
2021/08/01 09:26:21;;;;;;;4.72;2.50;;;;;;;21.53;52.76;99925.00;4956664;28;20050;-80
2021/08/01 09:29:14;;;;;;;4.78;2.53;;;;;;;21.52;53.25;99927.81;4966747;28;20039;-81
2021/08/01 09:31:39;;;;;;;5.13;2.20;;;;;;;21.57;53.25;99928.41;4970377;28;20130;-80
2021/08/01 09:34:27;;;;;;;3.67;2.35;;;;;;;21.37;54.84;99929.56;4972876;28;20061;-81
2021/08/01 09:37:02;;;;;;;5.90;2.50;;;;;;;21.41;54.05;99931.16;4973984;28;20049;-80
2021/08/01 09:39:28;;;;;;;4.55;2.60;;;;;;;21.52;54.13;99930.50;4970652;28;20074;-81
2021/08/01 09:42:00;;;;;;;3.58;2.20;;;;;;;21.46;54.66;99929.06;4956809;28;20047;-81
2021/08/01 09:44:25;;;;;;;4.80;2.28;;;;;;;21.41;55.42;99929.31;4954567;28;20152;-81
2021/08/01 09:46:55;;;;;;;4.43;2.47;;;;;;;21.30;55.14;99928.19;4972441;28;20046;-80
2021/08/01 09:49:30;;;;;;;4.18;2.33;;;;;;;21.31;55.58;99936.16;4970602;28;20082;-80
2021/08/01 09:51:58;;;;;;;4.95;2.30;;;;;;;21.23;56.25;99930.41;4953963;28;20031;-80
2021/08/01 09:54:43;;;;;;;4.72;2.30;;;;;;;21.13;57.46;99927.41;4956627;28;20039;-81
2021/08/01 09:57:15;;;;;;;4.70;2.47;;;;;;;20.97;57.62;99931.94;4955722;28;20053;-81
2021/08/01 09:59:41;;;;;;;5.60;2.80;;;;;;;20.78;57.34;99933.03;4971235;28;20117;-80
2021/08/01 10:02:08;;;;;;;7.43;2.50;;;;;;;20.74;57.63;99936.81;4971917;28;20124;-80
2021/08/01 10:04:38;;;;;;;4.35;2.60;;;;;;;20.73;58.09;99926.19;4952007;28;20089;-80
2021/08/01 10:07:10;;;;;;;4.72;2.50;;;;;;;20.64;58.94;99932.06;4968087;28;20035;-80
2021/08/01 10:09:38;;;;;;;6.13;2.55;;;;;;;20.59;59.09;99937.69;4974702;28;20026;-80
2021/08/01 10:12:04;;;;;;;6.93;2.50;;;;;;;20.59;59.02;99940.38;4972676;28;20035;-80
2021/08/01 10:14:30;;;;;;;5.25;2.53;;;;;;;20.60;58.85;99938.59;4939392;28;20481;-81
2021/08/01 10:16:56;;;;;;;7.30;2.58;;;;;;;20.62;59.55;99931.28;4954112;28;20094;-81
2021/08/01 10:19:22;;;;;;;5.78;2.60;;;;;;;20.64;59.71;99929.41;4955833;28;20142;-80
2021/08/01 10:21:49;;;;;;;8.18;2.30;;;;;;;20.66;59.34;99933.72;4972028;28;20066;-80
2021/08/01 10:24:16;;;;;;;6.05;2.97;;;;;;;20.62;59.44;99929.50;4972410;28;20089;-80
2021/08/01 10:26:49;;;;;;;5.55;3.08;;;;;;;20.54;61.98;99932.63;4971485;28;20035;-80
2021/08/01 10:29:21;;;;;;;5.90;3.13;;;;;;;20.46;62.16;99931.28;4953829;28;20486;-81
2021/08/01 10:31:54;;;;;;;4.97;3.00;;;;;;;20.70;60.86;99926.38;4972281;28;20093;-81
2021/08/01 10:34:27;;;;;;;7.15;3.90;;;;;;;20.70;60.37;99929.06;4952804;28;20031;-80
2021/08/01 10:36:56;;;;;;;5.93;3.28;;;;;;;20.75;60.41;99927.84;4976643;28;20046;-80
2021/08/01 10:39:26;;;;;;;6.53;3.50;;;;;;;20.74;60.83;99927.91;4959713;28;20063;-80
2021/08/01 10:41:51;;;;;;;5.18;3.15;;;;;;;20.86;60.79;99929.03;4951353;29;20506;-80
2021/08/01 10:44:18;;;;;;;5.95;3.30;;;;;;;20.94;59.92;99927.63;4971874;28;20034;-81
2021/08/01 10:46:44;;;;;;;9.02;3.60;;;;;;;21.04;59.96;99921.69;4970962;28;20053;-80
2021/08/01 10:49:11;;;;;;;4.43;3.47;;;;;;;21.05;60.36;99927.00;4972725;28;20039;-80
2021/08/01 10:51:37;;;;;;;4.88;3.00;;;;;;;20.95;61.09;99920.44;4953601;28;20035;-80
2021/08/01 10:54:21;;;;;;;4.15;3.03;;;;;;;20.91;62.12;99924.28;4972926;28;20035;-80
2021/08/01 10:57:07;;;;;;;4.63;2.70;;;;;;;20.92;61.03;99920.63;4954485;28;20039;-80
2021/08/01 10:59:45;;;;;;;5.63;3.15;;;;;;;20.86;61.99;99919.16;4952901;28;20054;-80
2021/08/01 11:02:12;;;;;;;5.35;3.60;;;;;;;20.76;62.42;99923.34;4971445;28;20054;-80
2021/08/01 11:04:38;;;;;;;5.03;3.25;;;;;;;20.70;62.24;99919.19;4971689;28;20054;-81
2021/08/01 11:07:03;;;;;;;5.07;3.30;;;;;;;20.66;62.24;99912.28;4971374;28;20081;-80
2021/08/01 11:09:29;;;;;;;4.45;3.25;;;;;;;20.51;63.58;99916.69;4971587;28;20509;-81
2021/08/01 11:12:19;;;;;;;5.90;3.65;;;;;;;20.39;65.74;99913.84;4953916;28;20120;-80
2021/08/01 11:14:46;;;;;;;6.30;3.63;;;;;;;20.44;64.95;99917.97;4952291;28;20035;-81
2021/08/01 11:17:11;;;;;;;6.63;4.40;;;;;;;20.52;65.11;99915.72;4970527;28;20061;-80
2021/08/01 11:19:37;;;;;;;4.80;3.25;;;;;;;20.65;64.15;99912.38;4970287;28;20503;-80
2021/08/01 11:22:02;;;;;;;5.20;3.60;;;;;;;20.65;64.13;99907.00;4954003;28;20047;-80
2021/08/01 11:24:28;;;;;;;5.88;3.28;;;;;;;20.93;63.41;99904.44;4953310;28;20030;-81
2021/08/01 11:27:08;;;;;;;4.75;3.47;;;;;;;21.40;62.89;99895.38;4971182;28;20461;-80
2021/08/01 11:30:02;;;;;;;4.90;3.58;;;;;;;21.77;60.68;99885.06;4971797;28;20078;-80
2021/08/01 11:32:29;;;;;;;5.80;3.67;;;;;;;22.14;60.37;99896.16;4951702;29;20042;-80
2021/08/01 11:35:15;;;;;;;4.22;3.20;;;;;;;22.39;59.90;99886.53;4966440;28;20067;-81
2021/08/01 11:37:40;;;;;;;6.93;3.70;;;;;;;22.20;57.96;99892.25;4970856;28;20110;-81
2021/08/01 11:40:06;;;;;;;5.85;3.63;;;;;;;22.60;57.70;99887.78;4953094;28;20485;-81